createdAt,value
2023-03-07T00:09:17.546Z,10.00
2023-03-07T00:12:06.533Z,9.90
2023-03-07T00:14:57.033Z,9.90
2023-03-07T00:17:45.782Z,9.90
2023-03-07T00:20:34.265Z,10.10
2023-03-07T00:23:24.078Z,10.20
2023-03-07T00:26:14.800Z,10.30
2023-03-07T00:29:03.264Z,10.40
2023-03-07T00:31:51.787Z,10.40
2023-03-07T00:34:40.251Z,10.40
2023-03-07T00:37:30.833Z,10.10
2023-03-07T00:40:21.101Z,10.00
2023-03-07T00:43:09.580Z,10.20
2023-03-07T00:45:58.403Z,10.20
2023-03-07T00:48:47.527Z,10.30
2023-03-07T00:51:36.005Z,10.40
2023-03-07T00:54:24.498Z,10.20
2023-03-07T00:57:14.310Z,10.10
2023-03-07T01:00:02.786Z,10.00
2023-03-07T01:02:52.894Z,9.80
2023-03-07T01:05:41.627Z,10.00
2023-03-07T01:08:30.076Z,10.10
2023-03-07T01:11:18.746Z,10.20
2023-03-07T01:14:08.602Z,10.20
2023-03-07T01:16:57.102Z,10.30
2023-03-07T01:19:45.540Z,10.30
2023-03-07T01:22:34.293Z,10.40
2023-03-07T01:25:22.748Z,10.40
2023-03-07T01:28:14.397Z,10.10
2023-03-07T01:31:04.280Z,10.30
2023-03-07T01:33:54.583Z,10.30
2023-03-07T01:36:43.069Z,10.20
2023-03-07T01:39:31.641Z,10.30
2023-03-07T01:42:20.397Z,10.30
2023-03-07T01:45:30.127Z,10.40
2023-03-07T01:48:20.052Z,10.50
2023-03-07T01:51:08.656Z,10.40
2023-03-07T01:53:58.526Z,10.50
2023-03-07T01:56:48.410Z,10.60
2023-03-07T01:59:41.401Z,10.60
2023-03-07T02:02:30.417Z,10.40
2023-03-07T02:05:25.384Z,10.40
2023-03-07T02:08:16.231Z,10.70
2023-03-07T02:11:05.037Z,10.70
2023-03-07T02:13:53.467Z,10.10
2023-03-07T02:16:42.761Z,10.00
2023-03-07T02:19:46.296Z,10.10
2023-03-07T02:22:36.209Z,10.20
2023-03-07T02:25:31.465Z,10.40
2023-03-07T02:28:21.652Z,10.50
2023-03-07T02:31:11.753Z,10.60
2023-03-07T02:34:00.847Z,10.70
2023-03-07T02:36:51.088Z,10.40
2023-03-07T02:39:42.674Z,10.00
2023-03-07T02:42:34.291Z,9.90
2023-03-07T02:45:24.139Z,10.00
2023-03-07T02:48:12.532Z,10.10
2023-03-07T02:51:01.109Z,10.20
2023-03-07T02:53:49.559Z,10.30
2023-03-07T02:56:38.228Z,10.40
2023-03-07T02:59:26.719Z,10.40
2023-03-07T03:02:16.868Z,10.60
2023-03-07T03:05:05.998Z,10.80
2023-03-07T03:07:54.646Z,10.70
2023-03-07T03:10:43.148Z,10.40
2023-03-07T03:13:31.617Z,10.30
2023-03-07T03:16:20.184Z,10.20
2023-03-07T03:19:10.440Z,10.30
2023-03-07T03:21:59.143Z,10.30
2023-03-07T03:24:47.620Z,10.40
2023-03-07T03:27:36.442Z,10.20
2023-03-07T03:30:24.892Z,10.10
2023-03-07T03:33:13.599Z,10.10
2023-03-07T03:36:09.104Z,10.10
2023-03-07T03:38:59.660Z,10.10
2023-03-07T03:41:48.254Z,10.00
2023-03-07T03:44:36.691Z,10.10
2023-03-07T03:47:25.202Z,10.10
2023-03-07T03:50:13.772Z,9.90
2023-03-07T03:53:03.891Z,9.40
2023-03-07T03:55:52.270Z,9.50
2023-03-07T03:58:41.938Z,9.60
2023-03-07T04:01:30.834Z,9.70
2023-03-07T04:04:19.416Z,9.80
2023-03-07T04:07:07.875Z,9.80
2023-03-07T04:09:57.692Z,9.60
2023-03-07T04:12:46.723Z,9.60
2023-03-07T04:15:35.222Z,9.50
2023-03-07T04:18:24.332Z,9.60
2023-03-07T04:21:12.963Z,9.70
2023-03-07T04:24:01.460Z,9.80
2023-03-07T04:26:51.290Z,9.80
2023-03-07T04:29:39.714Z,9.90
2023-03-07T04:32:28.183Z,9.70
2023-03-07T04:35:16.746Z,9.70
2023-03-07T04:38:05.168Z,9.80
2023-03-07T04:40:53.655Z,10.10
2023-03-07T04:43:43.645Z,10.10
2023-03-07T04:46:32.170Z,9.90
2023-03-07T04:49:20.592Z,9.80
2023-03-07T04:52:09.186Z,9.70
2023-03-07T04:54:57.636Z,9.20
2023-03-07T04:57:46.753Z,9.10
2023-03-07T05:00:36.559Z,9.20
2023-03-07T05:03:26.293Z,9.20
2023-03-07T05:06:17.120Z,9.20
2023-03-07T05:09:05.959Z,9.10
2023-03-07T05:11:54.440Z,8.90
2023-03-07T05:14:42.882Z,9.20
2023-03-07T05:17:32.877Z,9.20
2023-03-07T05:20:22.000Z,8.70
2023-03-07T05:23:10.487Z,8.30
2023-03-07T05:25:58.955Z,8.20
2023-03-07T05:28:47.578Z,7.50
2023-03-07T05:31:36.229Z,7.60
2023-03-07T05:34:26.180Z,7.90
2023-03-07T05:37:14.708Z,8.20
2023-03-07T05:40:04.040Z,8.50
2023-03-07T05:42:52.515Z,8.40
2023-03-07T05:45:41.033Z,8.60
2023-03-07T05:48:29.551Z,8.60
2023-03-07T05:51:19.399Z,8.80
2023-03-07T05:54:07.911Z,8.60
2023-03-07T05:56:56.329Z,8.30
2023-03-07T05:59:44.781Z,8.20
2023-03-07T06:02:33.257Z,7.70
2023-03-07T06:05:23.208Z,7.70
2023-03-07T06:08:14.088Z,7.70
2023-03-07T06:11:02.586Z,8.00
2023-03-07T06:13:51.117Z,8.20
2023-03-07T06:16:39.629Z,8.10
2023-03-07T06:19:28.273Z,8.30
2023-03-07T06:22:16.707Z,8.10
2023-03-07T06:25:07.823Z,7.80
2023-03-07T06:27:59.750Z,7.90
2023-03-07T06:30:48.275Z,8.00
2023-03-07T06:33:36.752Z,7.70
2023-03-07T06:36:25.244Z,7.90
2023-03-07T06:39:16.906Z,8.10
2023-03-07T06:42:07.145Z,8.40
2023-03-07T06:44:55.633Z,8.60
2023-03-07T06:47:44.094Z,8.70
2023-03-07T06:50:35.457Z,8.60
2023-03-07T06:53:24.325Z,8.80
2023-03-07T06:56:12.795Z,8.90
2023-03-07T06:59:03.071Z,9.00
2023-03-07T07:01:51.862Z,9.10
2023-03-07T07:04:40.346Z,9.00
2023-03-07T07:07:28.916Z,9.00
2023-03-07T07:10:17.580Z,9.30
2023-03-07T07:13:06.163Z,9.50
2023-03-07T07:15:56.017Z,9.90
2023-03-07T07:18:44.767Z,10.40
2023-03-07T07:21:33.343Z,10.40
2023-03-07T07:24:21.820Z,10.60
2023-03-07T07:27:12.514Z,10.70
2023-03-07T07:30:01.143Z,10.90
2023-03-07T07:35:39.947Z,11.50
2023-03-07T07:38:28.503Z,11.60
2023-03-07T07:41:18.237Z,11.50
2023-03-07T07:44:06.787Z,11.70
2023-03-07T07:46:55.225Z,11.80
2023-03-07T07:49:45.058Z,11.90
2023-03-07T07:52:33.504Z,12.00
2023-03-07T07:55:22.156Z,12.00
2023-03-07T07:58:10.598Z,12.20
2023-03-07T08:00:59.015Z,11.90
2023-03-07T08:03:47.844Z,11.80
2023-03-07T08:06:38.008Z,11.70
2023-03-07T08:09:26.444Z,11.60
2023-03-07T08:12:15.223Z,11.70
2023-03-07T08:15:04.060Z,12.10
2023-03-07T08:17:53.137Z,12.20
2023-03-07T08:20:42.296Z,12.30
2023-03-07T08:23:32.076Z,12.40
2023-03-07T08:26:20.714Z,12.40
2023-03-07T08:29:09.231Z,12.60
2023-03-07T08:31:57.780Z,12.80
2023-03-07T08:34:46.365Z,13.10
2023-03-07T08:37:35.340Z,13.20
2023-03-07T08:40:26.157Z,13.20
2023-03-07T08:43:14.681Z,13.20
2023-03-07T08:48:52.237Z,13.50
2023-03-07T08:51:40.668Z,13.70
2023-03-07T08:54:29.427Z,13.70
2023-03-07T08:57:19.313Z,13.70
2023-03-07T09:00:09.801Z,13.80
2023-03-07T09:03:01.482Z,13.70
2023-03-07T09:05:49.993Z,13.80
2023-03-07T09:08:38.485Z,14.20
2023-03-07T09:11:26.998Z,14.30
2023-03-07T09:14:16.883Z,14.40
2023-03-07T09:17:05.507Z,14.50
2023-03-07T09:19:53.927Z,14.60
2023-03-07T09:22:42.410Z,14.70
2023-03-07T09:25:31.233Z,14.90
2023-03-07T09:54:18.195Z,15.90
2023-03-07T09:57:13.549Z,15.90
2023-03-07T10:00:05.836Z,15.90
2023-03-07T10:02:58.392Z,15.80
2023-03-07T10:05:51.613Z,15.60
2023-03-07T10:08:40.241Z,15.70
2023-03-07T10:11:49.472Z,15.90
2023-03-07T10:15:03.640Z,15.70
2023-03-07T10:18:25.710Z,15.70
2023-03-07T10:21:25.799Z,15.70
2023-03-07T10:24:48.038Z,15.60
2023-03-07T11:51:37.906Z,17.60
2023-03-07T11:54:33.614Z,17.80
2023-03-07T12:47:24.524Z,16.40
2023-03-07T12:50:18.781Z,16.60
2023-03-07T12:53:16.157Z,16.70
2023-03-07T12:56:11.229Z,16.80
2023-03-07T12:59:04.978Z,16.80
2023-03-07T13:02:00.279Z,16.80
2023-03-07T13:04:48.697Z,16.90
2023-03-07T13:07:37.303Z,17.20
2023-03-07T14:10:22.875Z,15.90
2023-03-07T14:13:27.581Z,16.10
2023-03-07T14:16:27.800Z,16.10
2023-03-07T14:19:38.665Z,16.00
2023-03-07T14:23:00.046Z,16.00
2023-03-07T14:25:52.518Z,15.70
2023-03-07T14:28:49.614Z,15.80
2023-03-07T14:31:42.125Z,15.90
2023-03-07T14:34:35.057Z,15.70
2023-03-07T14:37:26.443Z,15.40
2023-03-07T14:40:31.057Z,15.40
2023-03-07T14:43:31.445Z,15.30
2023-03-07T14:46:27.007Z,15.30
2023-03-07T14:49:27.718Z,15.30
2023-03-07T14:52:30.333Z,15.20
2023-03-07T14:55:23.112Z,15.30
2023-03-07T14:58:18.606Z,15.20
2023-03-07T15:01:12.943Z,15.00
2023-03-07T15:04:01.515Z,15.10
2023-03-07T15:06:55.682Z,15.10
2023-03-07T15:09:45.588Z,14.80
2023-03-07T15:12:34.179Z,14.80
2023-03-07T15:15:31.533Z,14.90
2023-03-07T15:18:24.032Z,14.90
2023-03-07T15:21:18.813Z,14.90
2023-03-07T15:24:15.452Z,14.80
2023-03-07T15:27:10.303Z,14.80
2023-03-07T15:30:00.536Z,14.90
2023-03-07T15:32:49.035Z,14.80
2023-03-07T15:35:37.599Z,14.80
2023-03-07T15:38:26.537Z,14.70
2023-03-07T15:41:30.366Z,14.70
2023-03-07T15:44:22.254Z,14.80
2023-03-07T15:47:17.968Z,14.60
2023-03-07T15:50:08.212Z,14.50
2023-03-07T15:53:03.508Z,14.60
2023-03-07T15:55:57.118Z,14.50
2023-03-07T15:58:46.969Z,14.50
2023-03-07T16:01:36.871Z,14.40
2023-03-07T16:04:37.761Z,14.50
2023-03-07T16:07:26.510Z,14.40
2023-03-07T16:10:15.082Z,14.50
2023-03-07T16:13:03.804Z,14.70
2023-03-07T16:16:03.089Z,14.60
2023-03-07T16:18:53.658Z,14.60
2023-03-07T16:21:42.155Z,14.50
2023-03-07T16:24:30.654Z,14.50
2023-03-07T16:27:21.271Z,14.70
2023-03-07T16:30:15.698Z,14.60
2023-03-07T16:33:04.188Z,14.70
2023-03-07T16:35:53.999Z,14.70
2023-03-07T16:38:43.024Z,14.60
2023-03-07T16:41:31.551Z,14.40
2023-03-07T16:44:22.139Z,14.50
2023-03-07T16:47:15.507Z,14.50
2023-03-07T16:50:03.996Z,14.50
2023-03-07T16:52:53.939Z,14.30
2023-03-07T16:55:42.404Z,14.40
2023-03-07T16:58:34.934Z,14.60
2023-03-07T17:01:23.448Z,14.60
2023-03-07T17:04:11.944Z,14.50
2023-03-07T17:07:04.862Z,14.40
2023-03-07T17:09:56.458Z,14.40
2023-03-07T17:12:45.344Z,14.20
2023-03-07T17:15:33.914Z,14.00
2023-03-07T17:18:22.465Z,14.00
2023-03-07T17:21:13.838Z,14.10
2023-03-07T17:24:02.295Z,14.00
2023-03-07T17:29:45.115Z,13.70
2023-03-07T17:32:33.840Z,13.90
2023-03-07T17:35:22.504Z,14.10
2023-03-07T17:38:10.873Z,14.10
2023-03-07T17:40:59.348Z,14.20
2023-03-07T17:43:49.156Z,14.30
2023-03-07T17:46:38.464Z,14.00
2023-03-07T17:49:32.745Z,13.90
2023-03-07T17:52:21.207Z,14.10
2023-03-07T17:55:11.044Z,14.30
2023-03-07T17:57:59.535Z,14.20
2023-03-07T18:00:49.684Z,14.20
2023-03-07T18:06:27.182Z,14.30
2023-03-07T18:09:16.649Z,14.40
2023-03-07T18:12:05.507Z,14.40
2023-03-07T18:14:54.021Z,14.30
2023-03-07T18:17:49.146Z,14.50
2023-03-07T18:20:37.759Z,14.50
2023-03-07T18:23:26.286Z,14.60
2023-03-07T18:26:15.544Z,14.50
2023-03-07T18:29:04.055Z,14.60
2023-03-07T18:31:53.013Z,14.60
2023-03-07T18:34:42.880Z,14.60
2023-03-07T18:37:31.347Z,14.40
2023-03-07T18:40:22.068Z,14.40
2023-03-07T18:43:10.620Z,14.40
2023-03-07T18:45:59.511Z,14.50
2023-03-07T18:48:48.634Z,14.40
2023-03-07T18:51:39.450Z,14.50
2023-03-07T19:22:41.510Z,13.70
2023-03-07T19:36:47.640Z,14.80
2023-03-07T19:39:37.309Z,14.80
2023-03-07T19:42:27.257Z,14.60
2023-03-07T19:53:44.409Z,14.40
2023-03-07T19:56:33.833Z,14.00
2023-03-07T19:59:23.893Z,14.00
2023-03-07T20:02:14.449Z,13.70
2023-03-07T20:05:02.990Z,13.80
2023-03-07T20:07:51.482Z,13.80
2023-03-07T20:10:40.190Z,14.00
2023-03-07T20:13:28.759Z,13.90
2023-03-07T20:16:20.497Z,14.10
2023-03-07T20:19:10.539Z,14.10
2023-03-07T20:21:58.984Z,14.00
2023-03-07T20:24:50.650Z,13.90
2023-03-07T20:27:39.139Z,13.80
2023-03-07T20:30:27.725Z,14.00
2023-03-07T20:33:17.597Z,14.20
2023-03-07T20:36:08.195Z,14.30
2023-03-07T21:07:10.859Z,14.00
2023-03-07T21:09:59.339Z,13.70
2023-03-07T21:12:47.758Z,13.30
2023-03-07T21:15:36.204Z,13.30
2023-03-07T21:21:15.498Z,13.20
2023-03-07T21:24:06.383Z,13.10
2023-03-07T21:26:54.857Z,13.20
2023-03-07T21:29:43.610Z,13.20
2023-03-07T21:32:32.049Z,12.70
2023-03-07T21:35:20.522Z,12.80
2023-03-07T21:38:08.991Z,12.50
2023-03-07T21:40:59.083Z,12.10
2023-03-07T21:43:47.653Z,12.30
2023-03-07T21:46:36.242Z,12.30
2023-03-07T21:49:24.755Z,12.40
2023-03-07T21:52:13.196Z,12.70
2023-03-07T21:55:01.680Z,12.90
2023-03-07T21:57:51.642Z,13.00
2023-03-07T22:00:40.196Z,13.00
2023-03-07T22:03:29.980Z,13.20
2023-03-07T22:06:18.489Z,13.30
2023-03-07T22:09:06.985Z,13.30
2023-03-07T22:11:56.022Z,13.30
2023-03-07T22:14:45.899Z,13.30
2023-03-07T22:17:34.387Z,13.30
2023-03-07T22:20:23.203Z,13.20
2023-03-07T22:23:11.631Z,13.00
2023-03-07T22:26:05.268Z,12.80
2023-03-07T22:28:54.175Z,12.70
2023-03-07T22:31:44.012Z,12.90
2023-03-07T22:34:32.627Z,13.00
2023-03-07T22:37:21.151Z,13.00
2023-03-07T22:40:10.937Z,13.20
2023-03-07T22:42:59.423Z,12.80
2023-03-07T22:45:52.414Z,12.80
2023-03-07T22:48:42.396Z,12.80
2023-03-07T22:51:30.851Z,12.70
2023-03-07T22:54:19.348Z,12.60
2023-03-07T22:57:08.124Z,12.90
2023-03-07T22:59:56.596Z,12.90
2023-03-07T23:02:45.029Z,13.00
2023-03-07T23:05:35.009Z,13.00
2023-03-07T23:08:23.490Z,12.50
2023-03-07T23:11:12.359Z,12.20
2023-03-07T23:14:01.234Z,12.00
2023-03-07T23:16:49.875Z,12.00
2023-03-07T23:19:38.368Z,12.10
2023-03-07T23:22:28.175Z,12.30
2023-03-07T23:25:16.728Z,12.40
2023-03-07T23:28:05.345Z,12.00
2023-03-07T23:30:54.270Z,12.10
2023-03-07T23:33:42.713Z,11.90
2023-03-07T23:36:32.225Z,12.00
2023-03-07T23:39:21.996Z,12.10
2023-03-07T23:42:12.414Z,12.30
2023-03-07T23:45:00.834Z,12.30
2023-03-07T23:47:49.703Z,12.50
2023-03-07T23:50:38.217Z,12.50
2023-03-07T23:53:26.794Z,12.70
2023-03-07T23:56:16.824Z,12.30
2023-03-07T23:59:05.294Z,12.20
